Time;durP1;ratioP1;P1;durP2;ratioP2;P2;SDS_P1;SDS_P2;PMS_P1;PMS_P2;Temp;Humidity;BMP_temperature;BMP_pressure;BME280_temperature;BME280_humidity;BME280_pressure;Samples;Min_cycle;Max_cycle;Signal;HPM_P1;HPM_P2
2022/11/08 00:02:25;;;;;;;;;;;;;;;;;;5028344;28;20040;-64
2022/11/08 00:04:51;;;;;;;3.42;1.35;;;;;;;;;;5027564;28;19913;-63
2022/11/08 00:15:28;;;;;;;6.63;1.63;;;;;;;;;;5051772;28;19966;-64
2022/11/08 00:17:55;;;;;;;11.43;2.10;;;;;;;;;;5067411;28;20498;-63
2022/11/08 00:20:20;;;;;;;4.57;1.70;;;;;;;;;;5066125;28;20037;-64
2022/11/08 00:22:46;;;;;;;4.35;1.77;;;;;;;;;;5067211;28;20123;-63
2022/11/08 00:25:11;;;;;;;4.07;1.90;;;;;;;;;;5068027;28;20056;-64
2022/11/08 00:27:36;;;;;;;5.90;1.60;;;;;;;;;;5050471;28;20044;-64
2022/11/08 00:30:03;;;;;;;5.50;1.75;;;;;;;;;;5047161;28;20049;-64
2022/11/08 00:32:28;;;;;;;5.28;1.75;;;;;;;;;;5046241;28;20445;-64
2022/11/08 00:34:53;;;;;;;2.30;1.30;;;;;;;;;;5046983;28;20505;-64
2022/11/08 00:37:20;;;;;;;4.53;1.25;;;;;;;;;;5048030;28;20024;-64
2022/11/08 00:39:45;;;;;;;3.40;1.33;;;;;;;;;;5046754;28;20029;-64
2022/11/08 00:42:11;;;;;;;2.40;1.25;;;;;;;;;;5047221;28;20045;-64
2022/11/08 00:44:36;;;;;;;5.90;1.63;;;;;;;;;;5046014;28;20037;-64
2022/11/08 00:47:02;;;;;;;4.38;2.00;;;;;;;;;;5046509;28;20565;-64
2022/11/08 00:49:28;;;;;;;7.95;1.67;;;;;;;;;;5047118;28;20512;-64
2022/11/08 00:51:53;;;;;;;6.32;1.45;;;;;;;;;;5046851;28;20056;-64
2022/11/08 00:54:20;;;;;;;1.50;0.93;;;;;;;;;;5042035;28;20438;-64
2022/11/08 00:56:46;;;;;;;4.70;1.77;;;;;;;;;;5046827;28;20037;-63
2022/11/08 00:59:13;;;;;;;5.32;1.60;;;;;;;;;;5046785;28;20556;-64
2022/11/08 01:01:39;;;;;;;1.23;1.02;;;;;;;;;;5045653;28;20028;-64
2022/11/08 01:04:04;;;;;;;4.63;1.38;;;;;;;;;;5047468;28;20086;-64
2022/11/08 01:06:30;;;;;;;1.70;1.17;;;;;;;;;;5040001;28;20037;-64
2022/11/08 01:08:55;;;;;;;6.82;2.13;;;;;;;;;;5045471;28;20095;-63
2022/11/08 01:11:23;;;;;;;2.30;1.40;;;;;;;;;;5056312;28;20572;-64
2022/11/08 01:13:49;;;;;;;5.97;1.90;;;;;;;;;;5065380;28;20826;-64
2022/11/08 01:16:18;;;;;;;2.70;1.55;;;;;;;;;;5067600;28;20150;-64
2022/11/08 01:18:44;;;;;;;3.63;2.00;;;;;;;;;;5049482;28;20029;-63
2022/11/08 01:21:10;;;;;;;5.63;1.80;;;;;;;;;;5026383;28;20048;-64
2022/11/08 01:23:36;;;;;;;3.13;1.45;;;;;;;;;;5026700;28;20459;-64
2022/11/08 01:26:04;;;;;;;2.28;1.05;;;;;;;;;;5026646;28;20033;-64
2022/11/08 01:28:30;;;;;;;4.90;1.48;;;;;;;;;;5046793;28;20107;-64
2022/11/08 01:30:56;;;;;;;3.83;1.63;;;;;;;;;;5066869;28;20020;-64
2022/11/08 01:33:21;;;;;;;7.55;2.47;;;;;;;;;;5066375;28;20040;-64
2022/11/08 01:35:47;;;;;;;5.60;2.25;;;;;;;;;;5054743;28;20033;-63
2022/11/08 01:38:12;;;;;;;2.95;1.65;;;;;;;;;;5045265;28;20028;-63
2022/11/08 01:40:45;;;;;;;7.82;2.90;;;;;;;;;;5045032;28;20043;-64
2022/11/08 01:43:29;;;;;;;9.07;2.78;;;;;;;;;;5046636;28;20039;-64
2022/11/08 01:46:12;;;;;;;;;;;;;;;;;;5045122;28;20052;-64
2022/11/08 01:48:42;;;;;;;7.15;2.40;;;;;;;;;;5045475;28;19917;-64
2022/11/08 01:51:11;;;;;;;6.28;1.45;;;;;;;;;;5045302;28;20037;-64
2022/11/08 01:53:37;;;;;;;4.03;1.95;;;;;;;;;;5038126;28;20079;-64
2022/11/08 01:56:03;;;;;;;4.15;1.63;;;;;;;;;;5045016;28;20833;-64
2022/11/08 01:58:33;;;;;;;3.35;2.00;;;;;;;;;;5043958;28;20025;-63
2022/11/08 02:01:00;;;;;;;5.88;1.42;;;;;;;;;;5045139;28;20013;-64
2022/11/08 02:03:27;;;;;;;4.35;2.00;;;;;;;;;;5045612;28;20137;-64
2022/11/08 02:05:53;;;;;;;3.00;1.50;;;;;;;;;;5045198;28;20037;-64
2022/11/08 02:08:23;;;;;;;2.95;1.55;;;;;;;;;;5023372;28;20083;-64
2022/11/08 02:10:51;;;;;;;4.35;1.63;;;;;;;;;;5036603;28;20037;-64
2022/11/08 02:13:21;;;;;;;2.45;1.52;;;;;;;;;;5066064;28;20091;-64
2022/11/08 02:15:46;;;;;;;5.65;2.38;;;;;;;;;;5036073;28;20120;-63
2022/11/08 02:18:13;;;;;;;7.20;2.10;;;;;;;;;;5025266;28;20629;-64
2022/11/08 02:20:53;;;;;;;5.47;2.22;;;;;;;;;;5025674;28;20423;-64
2022/11/08 02:23:25;;;;;;;5.88;2.33;;;;;;;;;;5026953;28;20113;-63
2022/11/08 02:25:51;;;;;;;3.90;1.73;;;;;;;;;;5044409;28;20048;-64
2022/11/08 02:28:17;;;;;;;4.82;2.05;;;;;;;;;;5045466;28;20013;-63
2022/11/08 02:30:42;;;;;;;5.85;2.00;;;;;;;;;;5045468;28;20033;-64
2022/11/08 02:33:19;;;;;;;5.57;2.38;;;;;;;;;;5045332;28;20057;-64
2022/11/08 02:35:53;;;;;;;2.65;1.50;;;;;;;;;;5043542;28;20043;-64
2022/11/08 02:38:20;;;;;;;3.85;1.98;;;;;;;;;;5045344;28;20413;-64
2022/11/08 02:40:51;;;;;;;9.55;1.88;;;;;;;;;;5044938;28;20039;-64
2022/11/08 02:43:16;;;;;;;2.88;1.58;;;;;;;;;;5045279;28;20017;-63
2022/11/08 02:45:42;;;;;;;4.20;1.65;;;;;;;;;;5043523;28;20036;-64
2022/11/08 02:48:08;;;;;;;2.55;1.50;;;;;;;;;;5044700;28;20033;-64
2022/11/08 02:50:33;;;;;;;5.85;1.70;;;;;;;;;;5043158;28;20041;-64
2022/11/08 02:52:58;;;;;;;2.20;1.60;;;;;;;;;;5044702;28;20587;-64
2022/11/08 02:55:24;;;;;;;3.45;1.30;;;;;;;;;;5043457;28;20561;-64
2022/11/08 02:57:49;;;;;;;3.13;1.80;;;;;;;;;;5044675;28;20493;-63
2022/11/08 03:00:15;;;;;;;6.88;1.90;;;;;;;;;;5044456;28;20586;-63
2022/11/08 03:02:40;;;;;;;4.30;1.92;;;;;;;;;;5044784;28;20029;-64
2022/11/08 03:05:06;;;;;;;2.65;1.40;;;;;;;;;;5044618;28;20408;-64
2022/11/08 03:07:31;;;;;;;4.05;1.92;;;;;;;;;;5039447;28;20029;-64
2022/11/08 03:09:56;;;;;;;2.63;1.42;;;;;;;;;;5044757;28;20083;-63
2022/11/08 03:12:22;;;;;;;2.03;1.15;;;;;;;;;;5062608;28;20044;-64
2022/11/08 03:14:47;;;;;;;2.30;1.25;;;;;;;;;;5062124;28;20036;-64
2022/11/08 03:17:13;;;;;;;3.33;1.40;;;;;;;;;;5036701;28;20094;-64
2022/11/08 03:19:38;;;;;;;0.80;0.80;;;;;;;;;;5051089;28;20021;-64
2022/11/08 03:22:03;;;;;;;2.67;1.65;;;;;;;;;;5051708;28;20048;-64
2022/11/08 03:24:28;;;;;;;3.25;1.60;;;;;;;;;;5051441;28;20086;-64
2022/11/08 03:26:54;;;;;;;5.18;1.70;;;;;;;;;;5048388;28;20032;-64
2022/11/08 03:29:19;;;;;;;2.17;1.23;;;;;;;;;;5050978;28;20033;-64
2022/11/08 03:31:45;;;;;;;3.13;1.60;;;;;;;;;;5051435;28;20406;-64
2022/11/08 03:34:10;;;;;;;3.40;1.77;;;;;;;;;;5051678;28;20025;-63
2022/11/08 03:36:35;;;;;;;2.92;1.30;;;;;;;;;;5051127;28;20040;-64
2022/11/08 03:39:01;;;;;;;1.58;1.15;;;;;;;;;;5051478;28;20041;-63
2022/11/08 03:41:26;;;;;;;1.23;0.88;;;;;;;;;;5049537;28;20040;-64
2022/11/08 03:43:51;;;;;;;1.23;0.85;;;;;;;;;;5045695;28;20032;-64
2022/11/08 03:46:17;;;;;;;2.13;1.10;;;;;;;;;;5051409;28;20128;-64
2022/11/08 03:48:42;;;;;;;1.33;0.95;;;;;;;;;;5049529;28;20041;-64
2022/11/08 03:51:07;;;;;;;2.10;1.00;;;;;;;;;;5051033;28;20550;-64
2022/11/08 03:53:33;;;;;;;2.35;1.10;;;;;;;;;;5050655;28;20453;-63
2022/11/08 03:55:59;;;;;;;1.98;1.17;;;;;;;;;;5051297;28;20059;-64
2022/11/08 03:58:24;;;;;;;3.03;1.05;;;;;;;;;;5051336;28;20017;-64
2022/11/08 04:00:50;;;;;;;2.03;1.10;;;;;;;;;;5040725;28;20039;-64
2022/11/08 04:03:16;;;;;;;4.45;1.60;;;;;;;;;;5050883;28;20040;-64
2022/11/08 04:05:41;;;;;;;4.78;1.40;;;;;;;;;;5051093;28;20033;-64
2022/11/08 04:08:06;;;;;;;1.60;1.20;;;;;;;;;;5049034;28;20029;-64
2022/11/08 04:10:32;;;;;;;2.63;1.52;;;;;;;;;;5052189;28;20025;-63
2022/11/08 04:15:44;;;;;;;2.63;1.30;;;;;;;;;;5063951;28;20067;-64
2022/11/08 04:23:37;;;;;;;;;;;;;;;;;;5031329;28;20525;-64
2022/11/08 04:26:06;;;;;;;0.93;0.73;;;;;;;;;;5029276;28;19928;-64
2022/11/08 04:28:33;;;;;;;2.22;1.15;;;;;;;;;;5026857;28;20057;-64
2022/11/08 04:31:03;;;;;;;1.90;0.93;;;;;;;;;;5026736;28;20025;-64
2022/11/08 04:33:29;;;;;;;2.22;1.23;;;;;;;;;;5026920;28;20041;-64
2022/11/08 04:36:00;;;;;;;1.15;0.80;;;;;;;;;;5027478;28;20504;-64
2022/11/08 04:38:25;;;;;;;1.88;1.38;;;;;;;;;;5037436;28;20044;-64
2022/11/08 04:40:51;;;;;;;1.10;0.98;;;;;;;;;;5047006;28;20029;-64
2022/11/08 04:43:16;;;;;;;2.33;1.45;;;;;;;;;;5047260;28;20032;-64
2022/11/08 04:45:41;;;;;;;3.63;1.33;;;;;;;;;;5046750;28;20087;-64
2022/11/08 04:48:07;;;;;;;1.30;1.10;;;;;;;;;;5043895;28;20040;-64
2022/11/08 04:50:32;;;;;;;0.80;0.80;;;;;;;;;;5046994;28;20037;-64
2022/11/08 04:52:58;;;;;;;2.65;1.30;;;;;;;;;;5047098;28;20678;-64
2022/11/08 04:55:23;;;;;;;2.92;1.23;;;;;;;;;;5047342;28;20495;-64
2022/11/08 04:57:49;;;;;;;1.45;0.90;;;;;;;;;;5044714;28;20724;-63
2022/11/08 05:00:15;;;;;;;1.88;1.42;;;;;;;;;;5045282;28;20033;-64
2022/11/08 05:02:41;;;;;;;2.47;1.17;;;;;;;;;;5042682;28;20033;-64
2022/11/08 05:05:07;;;;;;;5.43;1.20;;;;;;;;;;5045067;28;20435;-63
2022/11/08 05:07:32;;;;;;;5.25;1.27;;;;;;;;;;5046939;28;20441;-64
2022/11/08 05:09:58;;;;;;;3.00;1.02;;;;;;;;;;5045481;28;20028;-64
2022/11/08 05:12:23;;;;;;;3.25;1.10;;;;;;;;;;5064810;28;20564;-64
2022/11/08 05:14:48;;;;;;;1.35;1.02;;;;;;;;;;5066729;28;20728;-64
2022/11/08 05:17:14;;;;;;;2.28;1.20;;;;;;;;;;5066556;28;20036;-64
2022/11/08 05:25:07;;;;;;;1.40;1.02;;;;;;;;;;5058556;28;20621;-64
2022/11/08 05:27:33;;;;;;;2.88;1.38;;;;;;;;;;5038225;28;20076;-64
2022/11/08 05:29:59;;;;;;;3.20;1.48;;;;;;;;;;5028085;28;20037;-64
2022/11/08 05:32:24;;;;;;;3.08;1.20;;;;;;;;;;5026453;28;20025;-63
2022/11/08 05:34:49;;;;;;;1.55;1.05;;;;;;;;;;5026565;28;20385;-64
2022/11/08 05:37:15;;;;;;;2.78;1.35;;;;;;;;;;5027022;28;20021;-63
2022/11/08 05:39:40;;;;;;;2.22;1.52;;;;;;;;;;5036746;28;20025;-64
2022/11/08 05:42:05;;;;;;;3.90;1.38;;;;;;;;;;5046030;28;20108;-64
2022/11/08 05:44:31;;;;;;;1.02;0.95;;;;;;;;;;5046138;28;20021;-64
2022/11/08 05:46:56;;;;;;;3.80;1.30;;;;;;;;;;5045801;28;20041;-64
2022/11/08 05:49:21;;;;;;;2.85;1.45;;;;;;;;;;5046595;28;20033;-64
2022/11/08 05:51:46;;;;;;;1.58;1.00;;;;;;;;;;5045851;28;20037;-64
2022/11/08 05:54:12;;;;;;;1.58;1.05;;;;;;;;;;5046365;28;20123;-64
2022/11/08 05:56:38;;;;;;;4.25;1.40;;;;;;;;;;5049459;28;20222;-64
2022/11/08 05:59:03;;;;;;;5.47;1.80;;;;;;;;;;5064471;28;20044;-64
2022/11/08 06:01:29;;;;;;;2.20;1.20;;;;;;;;;;5065725;28;20079;-64
2022/11/08 06:03:54;;;;;;;1.05;0.80;;;;;;;;;;5065742;28;20021;-64
2022/11/08 06:06:20;;;;;;;2.03;1.33;;;;;;;;;;5065283;28;20532;-64
2022/11/08 06:08:46;;;;;;;2.30;1.00;;;;;;;;;;5065344;28;20029;-63
2022/11/08 06:11:14;;;;;;;1.70;1.30;;;;;;;;;;5064999;28;20043;-63
2022/11/08 06:13:40;;;;;;;4.80;1.35;;;;;;;;;;5064192;28;20028;-63
2022/11/08 06:16:07;;;;;;;3.53;1.50;;;;;;;;;;5065001;28;20036;-64
2022/11/08 06:18:35;;;;;;;2.55;1.02;;;;;;;;;;5049473;28;20072;-64
2022/11/08 06:21:03;;;;;;;2.00;1.50;;;;;;;;;;5044784;28;20036;-64
2022/11/08 06:23:28;;;;;;;4.00;1.50;;;;;;;;;;5045026;28;20104;-63
2022/11/08 06:25:54;;;;;;;1.98;1.17;;;;;;;;;;5043402;28;20052;-63
2022/11/08 06:28:20;;;;;;;2.72;1.58;;;;;;;;;;5042147;28;20032;-64
2022/11/08 06:30:46;;;;;;;3.20;1.23;;;;;;;;;;5041199;28;20025;-64
2022/11/08 06:33:11;;;;;;;2.63;1.48;;;;;;;;;;5043209;28;20110;-63
2022/11/08 06:35:37;;;;;;;1.35;1.15;;;;;;;;;;5034277;28;20047;-63
2022/11/08 06:38:03;;;;;;;1.38;1.20;;;;;;;;;;5036111;28;20033;-63
2022/11/08 06:40:31;;;;;;;2.78;1.45;;;;;;;;;;5039761;28;20116;-64
2022/11/08 06:42:57;;;;;;;6.20;1.75;;;;;;;;;;5043730;28;20017;-63
2022/11/08 06:45:23;;;;;;;4.20;1.77;;;;;;;;;;5045671;28;20041;-63
2022/11/08 06:47:48;;;;;;;2.25;1.50;;;;;;;;;;5043742;28;20470;-63
2022/11/08 06:50:14;;;;;;;2.83;1.70;;;;;;;;;;5043012;28;20095;-63
2022/11/08 06:52:39;;;;;;;1.15;0.85;;;;;;;;;;5044191;28;20031;-63
2022/11/08 06:55:05;;;;;;;3.80;1.30;;;;;;;;;;5045693;28;20414;-63
2022/11/08 06:57:30;;;;;;;3.40;1.15;;;;;;;;;;5045317;28;20128;-63
2022/11/08 06:59:55;;;;;;;2.67;1.27;;;;;;;;;;5045486;28;20148;-63
2022/11/08 07:02:21;;;;;;;3.85;1.77;;;;;;;;;;5040028;28;20025;-63
2022/11/08 07:04:46;;;;;;;5.00;1.42;;;;;;;;;;5037821;28;20521;-63
2022/11/08 07:07:11;;;;;;;4.88;1.65;;;;;;;;;;5045661;28;20158;-63
2022/11/08 07:09:37;;;;;;;3.63;1.30;;;;;;;;;;5046867;28;20036;-63
2022/11/08 07:12:02;;;;;;;2.22;0.95;;;;;;;;;;5043582;28;20045;-63
2022/11/08 07:14:27;;;;;;;1.60;0.85;;;;;;;;;;5045122;28;20052;-63
2022/11/08 07:16:52;;;;;;;2.35;1.27;;;;;;;;;;5045101;28;20036;-63
2022/11/08 07:19:18;;;;;;;3.55;1.38;;;;;;;;;;5040302;28;20477;-64
2022/11/08 07:21:43;;;;;;;2.97;1.60;;;;;;;;;;5041980;28;20078;-63
2022/11/08 07:24:08;;;;;;;4.88;1.60;;;;;;;;;;5039881;28;20030;-63
2022/11/08 07:26:34;;;;;;;2.83;1.73;;;;;;;;;;5043629;28;20036;-63
2022/11/08 07:28:59;;;;;;;3.60;2.08;;;;;;;;;;5044404;28;20542;-63
2022/11/08 07:31:24;;;;;;;3.92;1.38;;;;;;;;;;5042303;28;20674;-63
2022/11/08 07:33:50;;;;;;;4.15;1.90;;;;;;;;;;5036361;28;20048;-63
2022/11/08 07:36:15;;;;;;;4.82;1.90;;;;;;;;;;5024716;28;20419;-63
2022/11/08 07:38:40;;;;;;;6.95;2.20;;;;;;;;;;5026205;28;20056;-63
2022/11/08 07:41:06;;;;;;;2.50;1.60;;;;;;;;;;5049441;28;20025;-63
2022/11/08 07:43:31;;;;;;;5.43;1.58;;;;;;;;;;5063298;28;20505;-63
2022/11/08 07:45:59;;;;;;;3.70;1.58;;;;;;;;;;5064399;28;20068;-64
2022/11/08 07:48:26;;;;;;;1.58;1.25;;;;;;;;;;5063735;28;20049;-63
2022/11/08 07:50:52;;;;;;;5.60;1.20;;;;;;;;;;5054308;28;20033;-63
2022/11/08 07:53:17;;;;;;;1.55;1.10;;;;;;;;;;5027247;28;20037;-64
2022/11/08 07:55:45;;;;;;;2.83;1.95;;;;;;;;;;5029312;28;20423;-63
2022/11/08 07:58:10;;;;;;;3.28;1.70;;;;;;;;;;5021435;28;20098;-63
2022/11/08 08:00:37;;;;;;;1.77;1.20;;;;;;;;;;5031782;28;20526;-64
2022/11/08 08:03:05;;;;;;;3.75;1.40;;;;;;;;;;5027448;28;20042;-63
2022/11/08 08:05:34;;;;;;;2.60;1.50;;;;;;;;;;5028939;28;20061;-63
2022/11/08 08:08:00;;;;;;;2.13;1.40;;;;;;;;;;5028348;28;20060;-63
2022/11/08 08:10:27;;;;;;;3.78;1.52;;;;;;;;;;5033817;28;20446;-63
2022/11/08 08:12:53;;;;;;;1.65;1.23;;;;;;;;;;5050938;28;20029;-63
2022/11/08 08:15:18;;;;;;;2.65;1.50;;;;;;;;;;5046484;28;20090;-63
2022/11/08 08:17:44;;;;;;;2.92;1.52;;;;;;;;;;5047621;28;20541;-63
2022/11/08 08:20:10;;;;;;;5.47;1.48;;;;;;;;;;5046647;28;20804;-63
2022/11/08 08:22:35;;;;;;;2.97;1.10;;;;;;;;;;5048025;28;20029;-63
2022/11/08 08:25:00;;;;;;;1.98;1.20;;;;;;;;;;5043545;28;20129;-64
2022/11/08 08:27:26;;;;;;;4.30;1.55;;;;;;;;;;5046540;28;20036;-64
2022/11/08 08:29:51;;;;;;;2.35;1.25;;;;;;;;;;5048340;28;20166;-63
2022/11/08 08:32:16;;;;;;;4.22;1.42;;;;;;;;;;5043747;28;20098;-64
2022/11/08 08:34:42;;;;;;;2.72;1.38;;;;;;;;;;5045377;28;20033;-63
2022/11/08 08:37:07;;;;;;;3.03;1.38;;;;;;;;;;5048173;28;20017;-63
2022/11/08 08:39:32;;;;;;;2.17;1.42;;;;;;;;;;5047523;28;20112;-64
2022/11/08 08:41:58;;;;;;;1.30;1.15;;;;;;;;;;5047911;28;20084;-63
2022/11/08 08:44:23;;;;;;;3.08;1.42;;;;;;;;;;5043474;28;20076;-63
2022/11/08 08:46:48;;;;;;;1.73;1.23;;;;;;;;;;5036639;28;20041;-64
2022/11/08 08:49:14;;;;;;;2.08;1.33;;;;;;;;;;5041344;28;20163;-63
2022/11/08 08:51:39;;;;;;;4.68;1.80;;;;;;;;;;5039776;28;20107;-64
2022/11/08 08:54:05;;;;;;;3.03;1.50;;;;;;;;;;5043366;28;20037;-63
2022/11/08 08:56:30;;;;;;;2.65;1.40;;;;;;;;;;5043597;28;20048;-63
2022/11/08 08:58:55;;;;;;;6.65;1.48;;;;;;;;;;5036910;28;20042;-63
2022/11/08 09:01:20;;;;;;;3.70;1.73;;;;;;;;;;5037127;28;20016;-63
2022/11/08 09:03:46;;;;;;;5.32;2.05;;;;;;;;;;5037279;28;20769;-63
2022/11/08 09:06:13;;;;;;;6.60;2.25;;;;;;;;;;5037486;28;20021;-63
2022/11/08 09:08:38;;;;;;;5.78;1.65;;;;;;;;;;5036957;28;20033;-63
2022/11/08 09:11:04;;;;;;;2.80;1.40;;;;;;;;;;5040287;28;20616;-63
2022/11/08 09:13:29;;;;;;;4.60;1.65;;;;;;;;;;5045237;28;20561;-63
2022/11/08 09:15:56;;;;;;;3.67;1.15;;;;;;;;;;5037119;28;20023;-63
2022/11/08 09:18:21;;;;;;;5.07;1.33;;;;;;;;;;5037369;28;20049;-64
2022/11/08 09:20:47;;;;;;;3.47;1.45;;;;;;;;;;5045426;28;20075;-64
2022/11/08 09:23:13;;;;;;;1.75;1.17;;;;;;;;;;5061113;28;20124;-63
2022/11/08 09:25:39;;;;;;;3.17;1.60;;;;;;;;;;5066650;28;20025;-64
2022/11/08 09:28:05;;;;;;;3.60;1.60;;;;;;;;;;5061631;28;20032;-63
2022/11/08 09:30:30;;;;;;;3.08;1.33;;;;;;;;;;5026492;28;20515;-63
2022/11/08 09:32:56;;;;;;;2.03;1.42;;;;;;;;;;5026566;28;20087;-63
2022/11/08 09:35:21;;;;;;;2.45;1.40;;;;;;;;;;5023799;28;20109;-63
2022/11/08 09:37:47;;;;;;;3.00;1.63;;;;;;;;;;5026179;28;20083;-63
2022/11/08 09:40:38;;;;;;;3.72;1.42;;;;;;;;;;5025930;28;20053;-64
2022/11/08 09:43:22;;;;;;;3.28;1.70;;;;;;;;;;5025695;28;20171;-63
2022/11/08 09:45:51;;;;;;;3.00;1.23;;;;;;;;;;5025993;28;20120;-63
2022/11/08 09:48:34;;;;;;;3.38;1.40;;;;;;;;;;5025747;28;20064;-63
2022/11/08 09:51:05;;;;;;;2.70;1.38;;;;;;;;;;5025643;28;20125;-63
2022/11/08 09:53:45;;;;;;;2.88;1.45;;;;;;;;;;5026318;28;20042;-63
2022/11/08 09:56:20;;;;;;;2.10;1.35;;;;;;;;;;5034561;28;20037;-64
2022/11/08 09:58:54;;;;;;;2.75;1.67;;;;;;;;;;5041754;28;20033;-64
2022/11/08 10:01:21;;;;;;;2.60;1.50;;;;;;;;;;5036888;28;20442;-65
2022/11/08 10:03:51;;;;;;;3.17;1.40;;;;;;;;;;5033073;28;20065;-63
2022/11/08 10:06:50;;;;;;;2.90;1.13;;;;;;;;;;5025260;28;20041;-63
2022/11/08 10:09:49;;;;;;;2.92;1.38;;;;;;;;;;5024172;28;20037;-63
2022/11/08 10:12:42;;;;;;;7.13;1.85;;;;;;;;;;5043748;28;20043;-64
2022/11/08 10:15:19;;;;;;;2.45;1.40;;;;;;;;;;5045548;28;20044;-62
2022/11/08 10:18:12;;;;;;;2.85;1.40;;;;;;;;;;5044426;28;20043;-63
2022/11/08 10:20:55;;;;;;;3.75;1.23;;;;;;;;;;5036968;28;20049;-63
2022/11/08 10:23:45;;;;;;;8.43;1.95;;;;;;;;;;5033295;28;20044;-63
2022/11/08 10:26:28;;;;;;;2.88;1.45;;;;;;;;;;5040924;28;20207;-62
2022/11/08 10:29:05;;;;;;;2.30;1.40;;;;;;;;;;5043726;28;20041;-63
2022/11/08 10:31:34;;;;;;;3.47;1.50;;;;;;;;;;5043669;28;20032;-61
2022/11/08 10:34:01;;;;;;;6.07;1.50;;;;;;;;;;5040217;28;20025;-61
2022/11/08 10:36:38;;;;;;;2.70;1.83;;;;;;;;;;5041509;28;20040;-63
2022/11/08 10:39:07;;;;;;;2.53;1.40;;;;;;;;;;5044813;28;20063;-64
2022/11/08 10:41:41;;;;;;;2.20;1.35;;;;;;;;;;5055659;28;20037;-64
2022/11/08 10:44:18;;;;;;;2.33;1.45;;;;;;;;;;5049567;28;20080;-62
2022/11/08 10:47:10;;;;;;;2.00;1.40;;;;;;;;;;5043156;28;20069;-62
2022/11/08 10:49:39;;;;;;;2.67;1.40;;;;;;;;;;5044431;28;20059;-61
2022/11/08 10:52:10;;;;;;;3.42;1.67;;;;;;;;;;5034193;28;20156;-62
2022/11/08 10:54:49;;;;;;;3.90;1.70;;;;;;;;;;5040446;28;20569;-62
2022/11/08 10:57:16;;;;;;;9.68;1.60;;;;;;;;;;5044458;28;20080;-62
2022/11/08 10:59:42;;;;;;;3.22;1.33;;;;;;;;;;5042582;28;20068;-63
2022/11/08 11:02:19;;;;;;;4.32;1.73;;;;;;;;;;5043499;28;20649;-62
2022/11/08 11:04:44;;;;;;;2.28;1.60;;;;;;;;;;5023238;28;20040;-63
2022/11/08 11:07:34;;;;;;;2.15;1.35;;;;;;;;;;5026047;28;20245;-63
2022/11/08 11:10:24;;;;;;;2.30;1.40;;;;;;;;;;5025178;28;20052;-63
2022/11/08 11:13:13;;;;;;;4.30;1.45;;;;;;;;;;5022642;28;20041;-63
2022/11/08 11:16:04;;;;;;;2.50;1.30;;;;;;;;;;5021589;28;20099;-63
2022/11/08 11:18:38;;;;;;;2.47;1.30;;;;;;;;;;5023391;28;20045;-63
2022/11/08 11:21:17;;;;;;;3.30;1.60;;;;;;;;;;5025030;28;20037;-62
2022/11/08 11:23:44;;;;;;;3.58;1.70;;;;;;;;;;5024779;28;20108;-62
2022/11/08 11:26:30;;;;;;;2.10;1.13;;;;;;;;;;5024698;28;20034;-63
2022/11/08 11:29:16;;;;;;;6.63;2.30;;;;;;;;;;5024661;28;20044;-62
2022/11/08 11:31:44;;;;;;;3.08;1.60;;;;;;;;;;5025104;28;20036;-63
2022/11/08 11:34:15;;;;;;;1.67;1.10;;;;;;;;;;5031866;28;20025;-63
2022/11/08 11:37:05;;;;;;;2.17;1.30;;;;;;;;;;5036226;28;20128;-63
2022/11/08 11:39:37;;;;;;;7.78;1.70;;;;;;;;;;5034867;28;20090;-63
2022/11/08 11:42:27;;;;;;;3.20;1.45;;;;;;;;;;5049141;28;20095;-63
2022/11/08 11:45:07;;;;;;;4.00;2.00;;;;;;;;;;5049136;28;20041;-63
2022/11/08 11:47:56;;;;;;;3.70;2.10;;;;;;;;;;5044743;28;20464;-63
2022/11/08 11:50:33;;;;;;;3.10;1.65;;;;;;;;;;5039688;28;20174;-63
2022/11/08 11:53:03;;;;;;;5.35;1.60;;;;;;;;;;5045240;28;20041;-63
2022/11/08 11:56:10;;;;;;;4.38;1.73;;;;;;;;;;5049825;28;20538;-63
2022/11/08 11:59:15;;;;;;;4.85;1.80;;;;;;;;;;5043813;28;20044;-63
2022/11/08 12:02:03;;;;;;;4.20;1.80;;;;;;;;;;5049102;28;20800;-63
2022/11/08 12:04:53;;;;;;;5.03;1.50;;;;;;;;;;5045010;28;20020;-63
2022/11/08 12:07:28;;;;;;;2.25;1.45;;;;;;;;;;5045236;28;20128;-63
2022/11/08 12:10:18;;;;;;;4.18;1.70;;;;;;;;;;5038567;28;20044;-63
2022/11/08 12:12:56;;;;;;;5.03;1.77;;;;;;;;;;5041378;28;20044;-63
2022/11/08 12:15:37;;;;;;;2.53;1.42;;;;;;;;;;5045700;28;20574;-63
2022/11/08 12:18:21;;;;;;;5.13;1.95;;;;;;;;;;5047627;28;20473;-63
2022/11/08 12:21:01;;;;;;;2.67;1.70;;;;;;;;;;5045936;28;20514;-63
2022/11/08 12:23:39;;;;;;;3.53;1.80;;;;;;;;;;5046563;28;20098;-63
2022/11/08 12:26:45;;;;;;;4.40;1.65;;;;;;;;;;5048194;28;20484;-63
2022/11/08 12:29:11;;;;;;;3.83;1.70;;;;;;;;;;5034921;28;20034;-63
2022/11/08 12:32:12;;;;;;;7.40;2.20;;;;;;;;;;5048098;28;20025;-63
2022/11/08 12:35:04;;;;;;;4.07;1.90;;;;;;;;;;5040787;28;20534;-63
2022/11/08 12:37:56;;;;;;;3.85;1.70;;;;;;;;;;5034096;28;20021;-63
2022/11/08 12:40:46;;;;;;;3.97;2.13;;;;;;;;;;5045017;28;20033;-63
2022/11/08 12:43:33;;;;;;;4.38;2.03;;;;;;;;;;5048096;28;20634;-63
2022/11/08 12:46:12;;;;;;;2.85;1.95;;;;;;;;;;5048591;28;20045;-63
2022/11/08 12:49:08;;;;;;;4.65;1.80;;;;;;;;;;5045963;28;20088;-63
2022/11/08 12:51:36;;;;;;;4.50;1.52;;;;;;;;;;5047100;28;20887;-63
2022/11/08 12:54:21;;;;;;;6.47;1.70;;;;;;;;;;5047083;28;20044;-63
2022/11/08 12:56:49;;;;;;;5.30;1.80;;;;;;;;;;5046976;28;20052;-63
2022/11/08 12:59:33;;;;;;;4.43;2.08;;;;;;;;;;5045982;28;20032;-63
2022/11/08 13:02:00;;;;;;;;;;;;;;;;;;5046003;28;20506;-64
2022/11/08 13:04:42;;;;;;;4.15;1.98;;;;;;;;;;5046857;28;19909;-63
2022/11/08 13:07:13;;;;;;;5.45;1.65;;;;;;;;;;5046984;28;20041;-63
2022/11/08 13:09:54;;;;;;;4.45;2.03;;;;;;;;;;5047127;28;20235;-63
2022/11/08 13:12:49;;;;;;;6.88;2.00;;;;;;;;;;5064456;28;20738;-63
2022/11/08 13:15:23;;;;;;;4.03;1.55;;;;;;;;;;5034194;28;20056;-63
2022/11/08 13:18:08;;;;;;;3.75;1.45;;;;;;;;;;5045174;28;20034;-63
2022/11/08 13:20:45;;;;;;;2.53;1.70;;;;;;;;;;5066911;28;20045;-63
2022/11/08 13:23:31;;;;;;;4.85;1.65;;;;;;;;;;5066997;28;20123;-64
2022/11/08 13:26:21;;;;;;;4.38;1.88;;;;;;;;;;5046780;28;20036;-63
2022/11/08 13:28:47;;;;;;;6.03;1.55;;;;;;;;;;5046423;28;20032;-63
2022/11/08 13:31:17;;;;;;;3.53;1.50;;;;;;;;;;5047417;28;20036;-64
2022/11/08 13:34:13;;;;;;;2.33;1.02;;;;;;;;;;5046508;28;20041;-63
2022/11/08 13:37:03;;;;;;;5.18;1.48;;;;;;;;;;5039623;28;20519;-64
2022/11/08 13:40:00;;;;;;;2.42;1.17;;;;;;;;;;5039637;28;20132;-63
2022/11/08 13:42:29;;;;;;;3.70;1.35;;;;;;;;;;5040212;28;20055;-63
2022/11/08 13:44:58;;;;;;;7.93;1.88;;;;;;;;;;5044298;28;20055;-63
2022/11/08 13:47:32;;;;;;;6.80;1.70;;;;;;;;;;5045058;28;20490;-63
2022/11/08 13:50:30;;;;;;;2.97;1.50;;;;;;;;;;5038321;28;20055;-63
2022/11/08 13:53:07;;;;;;;4.57;1.70;;;;;;;;;;5044195;28;20028;-63
2022/11/08 13:55:41;;;;;;;3.63;1.63;;;;;;;;;;5052410;28;20182;-63
2022/11/08 13:58:39;;;;;;;4.57;1.60;;;;;;;;;;5064395;28;20063;-63
2022/11/08 14:01:27;;;;;;;3.88;1.88;;;;;;;;;;5039848;28;20049;-63
2022/11/08 14:03:55;;;;;;;2.67;1.58;;;;;;;;;;5042397;28;20055;-63
2022/11/08 14:06:41;;;;;;;4.53;1.55;;;;;;;;;;5038546;28;20098;-63
2022/11/08 14:09:35;;;;;;;6.97;1.92;;;;;;;;;;5041454;28;20065;-63
2022/11/08 14:12:15;;;;;;;3.78;1.30;;;;;;;;;;5029250;28;20049;-63
2022/11/08 14:14:50;;;;;;;4.68;1.63;;;;;;;;;;5023742;28;20530;-64
2022/11/08 14:17:41;;;;;;;7.72;1.83;;;;;;;;;;5039973;28;20037;-63
2022/11/08 14:20:21;;;;;;;8.15;2.10;;;;;;;;;;5040380;28;20049;-63
2022/11/08 14:22:48;;;;;;;4.97;1.55;;;;;;;;;;5035125;28;20111;-63
2022/11/08 14:25:21;;;;;;;4.20;1.90;;;;;;;;;;5025984;28;20033;-63
2022/11/08 14:27:47;;;;;;;5.30;2.17;;;;;;;;;;5036295;28;20110;-64
2022/11/08 14:30:20;;;;;;;3.53;1.55;;;;;;;;;;5044859;28;20511;-63
2022/11/08 14:32:46;;;;;;;3.75;1.60;;;;;;;;;;5045854;28;20036;-63
2022/11/08 14:35:13;;;;;;;4.88;1.80;;;;;;;;;;5045188;28;20086;-63
2022/11/08 14:37:41;;;;;;;5.68;1.88;;;;;;;;;;5046044;28;20044;-63
2022/11/08 14:40:14;;;;;;;3.63;1.70;;;;;;;;;;5043669;28;20017;-63
2022/11/08 14:42:43;;;;;;;7.47;2.13;;;;;;;;;;5045867;28;20540;-63
2022/11/08 14:45:12;;;;;;;2.97;1.70;;;;;;;;;;5043715;28;20037;-63
2022/11/08 14:47:39;;;;;;;4.90;2.15;;;;;;;;;;5045246;28;20049;-63
2022/11/08 14:50:15;;;;;;;3.55;1.98;;;;;;;;;;5042852;28;20076;-63
2022/11/08 14:52:40;;;;;;;7.13;2.00;;;;;;;;;;5045606;28;20078;-63
2022/11/08 14:55:10;;;;;;;4.28;1.50;;;;;;;;;;5046515;28;20053;-63
2022/11/08 14:57:37;;;;;;;2.22;1.55;;;;;;;;;;5041475;28;20045;-63
2022/11/08 15:00:12;;;;;;;6.43;1.98;;;;;;;;;;5042006;28;20594;-63
2022/11/08 15:02:42;;;;;;;4.45;1.63;;;;;;;;;;5040616;28;20059;-63
2022/11/08 15:05:36;;;;;;;1.77;1.17;;;;;;;;;;5039070;28;20033;-63
2022/11/08 15:08:05;;;;;;;4.72;1.98;;;;;;;;;;5036596;28;20040;-63
2022/11/08 15:10:31;;;;;;;4.13;1.85;;;;;;;;;;5042117;28;20017;-63
2022/11/08 15:12:56;;;;;;;5.22;1.90;;;;;;;;;;5045392;28;20072;-63
2022/11/08 15:15:29;;;;;;;3.70;1.50;;;;;;;;;;5035256;28;20040;-63
2022/11/08 15:18:25;;;;;;;9.30;2.10;;;;;;;;;;5039927;28;20131;-63
2022/11/08 15:21:19;;;;;;;4.68;1.58;;;;;;;;;;5043374;28;20060;-63
2022/11/08 15:23:45;;;;;;;3.95;1.90;;;;;;;;;;5042324;28;20482;-63
2022/11/08 15:26:21;;;;;;;3.08;1.83;;;;;;;;;;5044022;28;20506;-63
2022/11/08 15:29:01;;;;;;;1.98;1.55;;;;;;;;;;5041599;28;20021;-63